Fedhaven, Florida
Current Conditions -  °F | °C
As of 9:47 AM on Monday 24 Nov 2014 (Local Time) from KBOW Reporting Station
Broken Clouds Broken Clouds  
Wind Chill: 24°   Ceiling: 700
Heat Index: 24°   Visibility: 8mi
Dew Point: 24°   Wind: 8mph
Humidity: 100%   Direction: 180°S
Pressure: 30.01"   Gusts: NA
Location:  27.86°N, 81.41°W
Report Text: KBOW 241447Z 18007KT 8SM BKN007 24/24 A3001
Loading
Personal Weather Stations






























Interactive Weather Map New forecast layout! Learn more

10-Day Weather Forecast

Advertisements
Track Severe Weather on mobile